Suches, Georgia
Current Conditions -  °F | °C
As of 12:53 AM on Sunday 21 Dec 2014 (Local Time) from KGVL Reporting Station
Haze Haze  
Wind Chill: 40°   Ceiling: 300
Heat Index: 43°   Visibility: 2.5mi
Dew Point: 41°   Wind: 5mph
Humidity: 93%   Direction: 90°E
Pressure: 30.22"   Gusts: NA
Location:  34.72°N, 84.05°W
Report Text: KGVL 210553Z AUTO 09004KT 2 1/2SM BR OVC003 06/05 A3022 RMK AO2 SLP234 T00610050 10072 20061 50001
Loading
Personal Weather Stations






























Interactive Weather Map New forecast layout! Learn more

10-Day Weather Forecast

Advertisements
Track Severe Weather on mobile